createdAt,value
2018-12-03T00:00:10.882Z,11.04
2018-12-03T00:01:20.322Z,11.04
2018-12-03T00:02:30.258Z,11.12
2018-12-03T00:03:40.202Z,11.15
2018-12-03T00:04:50.146Z,11.15
2018-12-03T00:05:59.854Z,11.19
2018-12-03T00:07:09.549Z,11.18
2018-12-03T00:08:19.241Z,11.2
2018-12-03T00:09:29.252Z,11.23
2018-12-03T00:10:38.945Z,11.25
2018-12-03T00:11:48.897Z,11.25
2018-12-03T00:12:58.599Z,11.27
2018-12-03T00:14:08.288Z,11.27
2018-12-03T00:15:18.242Z,11.22
2018-12-03T00:16:27.947Z,11.3
2018-12-03T00:17:37.139Z,11.31
2018-12-03T00:18:47.078Z,11.31
2018-12-03T00:19:56.782Z,11.3
2018-12-03T00:21:06.490Z,11.27
2018-12-03T00:22:16.457Z,11.26
2018-12-03T00:23:26.164Z,11.25
2018-12-03T00:24:36.151Z,11.27
2018-12-03T00:25:46.098Z,11.31
2018-12-03T00:26:56.059Z,11.22
2018-12-03T00:28:06.006Z,11.23
2018-12-03T00:29:15.967Z,11.16
2018-12-03T00:30:25.927Z,11.16
2018-12-03T00:31:35.622Z,11.16
2018-12-03T00:32:45.584Z,11.01
2018-12-03T00:33:55.270Z,11.01
2018-12-03T00:35:05.217Z,11.1
2018-12-03T00:36:15.177Z,11
2018-12-03T00:37:25.122Z,10.98
2018-12-03T00:38:34.816Z,10.98
2018-12-03T00:39:44.500Z,11.02
2018-12-03T00:40:54.473Z,10.94
2018-12-03T00:42:04.457Z,10.82
2018-12-03T00:43:14.439Z,10.87
2018-12-03T00:44:24.135Z,10.84
2018-12-03T00:45:33.839Z,10.86
2018-12-03T00:46:43.284Z,10.77
2018-12-03T00:47:52.716Z,10.83
2018-12-03T00:49:02.653Z,10.77
2018-12-03T00:50:12.643Z,10.79
2018-12-03T00:51:22.086Z,10.79
2018-12-03T00:52:31.528Z,10.68
2018-12-03T00:53:41.233Z,10.68
2018-12-03T00:54:50.928Z,10.72
2018-12-03T00:56:00.376Z,10.79
2018-12-03T00:57:10.312Z,10.64
2018-12-03T00:58:19.758Z,10.62
2018-12-03T00:59:29.453Z,10.68
2018-12-03T01:00:39.146Z,10.61
2018-12-03T01:01:48.833Z,10.59
2018-12-03T01:02:58.772Z,10.67
2018-12-03T01:04:08.215Z,10.65
2018-12-03T01:05:17.907Z,10.68
2018-12-03T01:06:27.844Z,10.64
2018-12-03T01:07:37.547Z,10.67
2018-12-03T01:08:47.484Z,10.67
2018-12-03T01:09:57.181Z,10.68
2018-12-03T01:11:07.128Z,10.64
2018-12-03T01:12:16.830Z,10.68
2018-12-03T01:13:26.296Z,10.65
2018-12-03T01:14:35.973Z,10.64
2018-12-03T01:15:45.417Z,10.71
2018-12-03T01:16:55.420Z,10.62
2018-12-03T01:18:05.399Z,10.71
2018-12-03T01:19:15.081Z,10.72
2018-12-03T01:20:24.796Z,10.77
2018-12-03T01:21:34.754Z,10.79
2018-12-03T01:22:44.701Z,10.76
2018-12-03T01:23:54.412Z,10.83
2018-12-03T01:25:04.362Z,10.76
2018-12-03T01:26:14.306Z,10.79
2018-12-03T01:27:23.995Z,10.87
2018-12-03T01:28:33.944Z,10.87
2018-12-03T01:29:43.663Z,10.87
2018-12-03T01:30:53.615Z,10.9
2018-12-03T01:32:03.331Z,10.94
2018-12-03T01:33:13.024Z,10.94
2018-12-03T01:34:22.962Z,10.9
2018-12-03T01:35:32.653Z,11.04
2018-12-03T01:36:42.348Z,11.01
2018-12-03T01:37:51.794Z,11.01
2018-12-03T01:39:01.236Z,10.98
2018-12-03T01:40:11.180Z,11.02
2018-12-03T01:41:21.123Z,11
2018-12-03T01:42:31.072Z,11.08
2018-12-03T01:43:40.508Z,11.07
2018-12-03T01:44:50.458Z,11.1
2018-12-03T01:45:59.669Z,11.25
2018-12-03T01:47:09.600Z,11.19
2018-12-03T01:48:19.302Z,11.25
2018-12-03T01:49:29.012Z,11.38
2018-12-03T01:50:38.705Z,11.37
2018-12-03T01:51:48.660Z,11.37
2018-12-03T01:52:58.608Z,11.48
2018-12-03T01:54:08.557Z,11.4
2018-12-03T01:55:18.270Z,11.45
2018-12-03T01:56:27.962Z,11.41
2018-12-03T01:57:37.901Z,11.49
2018-12-03T01:58:47.859Z,11.51
2018-12-03T01:59:57.809Z,11.51
2018-12-03T02:01:07.754Z,11.58
2018-12-03T02:02:17.447Z,11.65
2018-12-03T02:03:27.141Z,11.55
2018-12-03T02:04:37.069Z,11.59
2018-12-03T02:05:47.024Z,11.67
2018-12-03T02:06:56.977Z,11.59
2018-12-03T02:08:06.665Z,11.7
2018-12-03T02:09:16.347Z,11.62
2018-12-03T02:10:26.303Z,11.63
2018-12-03T02:11:36.243Z,11.78
2018-12-03T02:12:46.195Z,11.71
2018-12-03T02:13:56.150Z,11.73
2018-12-03T02:15:06.104Z,11.7
2018-12-03T02:16:16.040Z,11.68
2018-12-03T02:17:25.999Z,11.65
2018-12-03T02:18:35.943Z,11.63
2018-12-03T02:19:45.637Z,11.63
2018-12-03T02:20:55.586Z,11.73
2018-12-03T02:22:05.290Z,11.68
2018-12-03T02:23:15.212Z,11.7
2018-12-03T02:24:25.160Z,11.73
2018-12-03T02:25:34.846Z,11.71
2018-12-03T02:26:44.541Z,11.73
2018-12-03T02:27:54.478Z,11.8
2018-12-03T02:29:04.168Z,11.81
2018-12-03T02:30:13.875Z,11.71
2018-12-03T02:31:23.579Z,11.83
2018-12-03T02:32:33.025Z,11.77
2018-12-03T02:33:42.997Z,11.85
2018-12-03T02:34:52.950Z,11.86
2018-12-03T02:36:02.886Z,11.76
2018-12-03T02:37:12.845Z,11.8
2018-12-03T02:38:22.806Z,11.81
2018-12-03T02:39:32.499Z,11.74
2018-12-03T02:40:42.453Z,11.86
2018-12-03T02:41:52.394Z,11.78
2018-12-03T02:43:02.105Z,11.74
2018-12-03T02:44:12.081Z,11.85
2018-12-03T02:45:22.052Z,11.76
2018-12-03T02:46:31.990Z,11.74
2018-12-03T02:47:41.949Z,11.78
2018-12-03T02:48:51.901Z,11.83
2018-12-03T02:50:01.863Z,11.78
2018-12-03T02:51:11.324Z,11.86
2018-12-03T02:52:21.043Z,11.83
2018-12-03T02:53:30.724Z,11.74
2018-12-03T02:54:40.688Z,11.63
2018-12-03T02:55:50.382Z,11.63
2018-12-03T02:57:00.335Z,11.62
2018-12-03T02:58:10.030Z,11.63
2018-12-03T02:59:19.757Z,11.6
2018-12-03T03:00:29.704Z,11.62
2018-12-03T03:01:39.697Z,11.63
2018-12-03T03:02:49.643Z,11.58
2018-12-03T03:03:59.341Z,11.65
2018-12-03T03:05:09.293Z,11.58
2018-12-03T03:06:19.248Z,11.59
2018-12-03T03:07:28.945Z,11.41
2018-12-03T03:08:38.889Z,11.49
2018-12-03T03:09:48.584Z,11.45
2018-12-03T03:10:58.587Z,11.48
2018-12-03T03:12:08.287Z,11.41
2018-12-03T03:13:18.230Z,11.45
2018-12-03T03:14:28.199Z,11.45
2018-12-03T03:15:38.140Z,11.45
2018-12-03T03:16:47.839Z,11.53
2018-12-03T03:17:57.786Z,11.48
2018-12-03T03:19:07.498Z,11.48
2018-12-03T03:20:17.447Z,11.41
2018-12-03T03:21:27.389Z,11.44
2018-12-03T03:22:37.338Z,11.44
2018-12-03T03:23:46.806Z,11.44
2018-12-03T03:24:56.522Z,11.33
2018-12-03T03:26:06.474Z,11.35
2018-12-03T03:27:16.426Z,11.41
2018-12-03T03:28:26.378Z,11.4
2018-12-03T03:29:36.338Z,11.37
2018-12-03T03:30:46.306Z,11.38
2018-12-03T03:31:56.030Z,11.25
2018-12-03T03:33:06.014Z,11.38
2018-12-03T03:34:15.820Z,11.31
2018-12-03T03:35:25.763Z,11.25
2018-12-03T03:36:35.725Z,11.31
2018-12-03T03:37:45.666Z,11.25
2018-12-03T03:38:55.600Z,11.26
2018-12-03T03:40:05.045Z,11.18
2018-12-03T03:41:15.000Z,11.3
2018-12-03T03:42:24.966Z,11.23
2018-12-03T03:43:34.413Z,11.23
2018-12-03T03:44:44.366Z,11.12
2018-12-03T03:45:54.059Z,11.15
2018-12-03T03:47:04.010Z,11.19
2018-12-03T03:48:13.722Z,11.3
2018-12-03T03:49:23.668Z,11.18
2018-12-03T03:50:33.369Z,11.15
2018-12-03T03:51:42.818Z,11.23
2018-12-03T03:52:52.513Z,11.23
2018-12-03T03:54:02.211Z,11.15
2018-12-03T03:55:11.926Z,11.18
2018-12-03T03:56:21.873Z,11.25
2018-12-03T03:57:31.824Z,11.23
2018-12-03T03:58:41.529Z,11.23
2018-12-03T03:59:51.241Z,11.2
2018-12-03T04:01:00.692Z,11.18
2018-12-03T04:02:10.648Z,11.23
2018-12-03T04:03:20.606Z,11.2
2018-12-03T04:04:30.550Z,11.18
2018-12-03T04:05:40.247Z,11.19
2018-12-03T04:06:49.947Z,11.23
2018-12-03T04:07:59.643Z,11.15
2018-12-03T04:09:09.339Z,11.1
2018-12-03T04:10:19.280Z,11.23
2018-12-03T04:11:28.975Z,11.13
2018-12-03T04:12:38.932Z,11.12
2018-12-03T04:13:48.397Z,11.13
2018-12-03T04:14:57.857Z,11.12
2018-12-03T04:16:07.800Z,11.08
2018-12-03T04:17:17.814Z,11.12
2018-12-03T04:18:27.502Z,11.04
2018-12-03T04:19:37.475Z,11.08
2018-12-03T04:20:47.515Z,11.08
2018-12-03T04:21:57.224Z,11.08
2018-12-03T04:23:06.918Z,11.08
2018-12-03T04:24:16.380Z,11.05
2018-12-03T04:25:26.357Z,11.07
2018-12-03T04:26:36.144Z,11.1
2018-12-03T04:27:46.089Z,11.18
2018-12-03T04:28:56.050Z,11.05
2018-12-03T04:30:05.762Z,11.18
2018-12-03T04:31:15.484Z,11.1
2018-12-03T04:32:25.268Z,11.18
2018-12-03T04:33:34.955Z,11.02
2018-12-03T04:34:44.643Z,11.05
2018-12-03T04:35:54.336Z,11.1
2018-12-03T04:37:04.285Z,11.08
2018-12-03T04:38:13.974Z,11.07
2018-12-03T04:39:23.923Z,11.08
2018-12-03T04:40:33.627Z,10.98
2018-12-03T04:41:43.585Z,11.04
2018-12-03T04:42:53.548Z,11.05
2018-12-03T04:44:03.240Z,10.95
2018-12-03T04:45:13.188Z,10.97
2018-12-03T04:46:22.894Z,11
2018-12-03T04:47:32.844Z,11.07
2018-12-03T04:48:42.814Z,10.97
2018-12-03T04:49:52.520Z,10.92
2018-12-03T04:51:02.471Z,10.95
2018-12-03T04:52:12.429Z,11.02
2018-12-03T04:53:22.385Z,11.02
2018-12-03T04:54:32.336Z,10.94
2018-12-03T04:55:42.292Z,10.89
2018-12-03T04:56:52.000Z,10.97
2018-12-03T04:58:01.940Z,10.98
2018-12-03T04:59:11.637Z,10.97
2018-12-03T05:00:21.083Z,11.02
2018-12-03T05:01:31.032Z,10.97
2018-12-03T05:02:40.975Z,10.9
2018-12-03T05:03:50.960Z,10.94
2018-12-03T05:05:00.673Z,11
2018-12-03T05:06:10.229Z,10.95
2018-12-03T05:07:20.185Z,11.01
2018-12-03T05:08:29.882Z,10.94
2018-12-03T05:09:39.576Z,11.01
2018-12-03T05:10:49.285Z,10.95
2018-12-03T05:11:58.976Z,10.94
2018-12-03T05:13:08.184Z,11.05
2018-12-03T05:14:18.144Z,10.97
2018-12-03T05:15:28.092Z,11.07
2018-12-03T05:16:37.798Z,10.98
2018-12-03T05:17:47.498Z,11.08
2018-12-03T05:18:57.211Z,11.02
2018-12-03T05:20:06.906Z,11.04
2018-12-03T05:21:16.882Z,11.1
2018-12-03T05:22:26.573Z,11.02
2018-12-03T05:23:36.510Z,11.02
2018-12-03T05:24:46.204Z,11.08
2018-12-03T05:25:55.888Z,11.12
2018-12-03T05:27:05.847Z,11.16
2018-12-03T05:28:15.298Z,11.1
2018-12-03T05:29:25.240Z,11.13
2018-12-03T05:30:35.200Z,11.12
2018-12-03T05:31:45.143Z,11.16
2018-12-03T05:32:55.096Z,11.13
2018-12-03T05:34:04.811Z,11.19
2018-12-03T05:35:14.768Z,11.2
2018-12-03T05:36:24.470Z,11.12
2018-12-03T05:37:33.925Z,11.2
2018-12-03T05:38:43.683Z,11.22
2018-12-03T05:39:53.382Z,11.23
2018-12-03T05:41:03.075Z,11.19
2018-12-03T05:42:12.779Z,11.2
2018-12-03T05:43:22.743Z,11.22
2018-12-03T05:44:31.692Z,11.2
2018-12-03T05:45:41.646Z,11.19
2018-12-03T05:46:51.576Z,11.18
2018-12-03T05:48:01.278Z,11.22
2018-12-03T05:49:10.741Z,11.19
2018-12-03T05:50:20.438Z,11.22
2018-12-03T05:51:30.130Z,11.2
2018-12-03T05:52:40.068Z,11.22
2018-12-03T05:53:49.758Z,11.25
2018-12-03T05:54:59.708Z,11.19
2018-12-03T05:56:09.669Z,11.2
2018-12-03T05:57:19.614Z,11.26
2018-12-03T05:58:29.540Z,11.3
2018-12-03T05:59:39.498Z,11.27
2018-12-03T06:00:49.443Z,11.31
2018-12-03T06:01:58.901Z,11.34
2018-12-03T06:03:08.873Z,11.25
2018-12-03T06:04:18.822Z,11.34
2018-12-03T06:05:28.772Z,11.22
2018-12-03T06:06:39.241Z,11.27
2018-12-03T06:07:48.943Z,11.3
2018-12-03T06:08:58.396Z,11.3
2018-12-03T06:10:08.351Z,11.26
2018-12-03T06:11:18.339Z,11.23
2018-12-03T06:12:28.304Z,11.2
2018-12-03T06:13:38.253Z,11.25
2018-12-03T06:14:48.196Z,11.25
2018-12-03T06:15:58.146Z,11.2
2018-12-03T06:17:08.094Z,11.2
2018-12-03T06:18:17.287Z,11.16
2018-12-03T06:19:26.993Z,11.15
2018-12-03T06:20:36.716Z,11.1
2018-12-03T06:21:46.724Z,11.15
2018-12-03T06:22:56.404Z,11.16
2018-12-03T06:24:05.602Z,11.05
2018-12-03T06:25:15.622Z,11.15
2018-12-03T06:26:25.631Z,11.08
2018-12-03T06:27:35.579Z,11.16
2018-12-03T06:28:45.553Z,11.13
2018-12-03T06:29:55.255Z,11.12
2018-12-03T06:31:05.220Z,11.1
2018-12-03T06:32:15.161Z,11.16
2018-12-03T06:33:25.113Z,11.1
2018-12-03T06:34:35.070Z,10.98
2018-12-03T06:35:44.767Z,10.98
2018-12-03T06:36:54.740Z,11.05
2018-12-03T06:38:04.692Z,10.97
2018-12-03T06:39:20.054Z,11.1
2018-12-03T06:40:30.005Z,10.98
2018-12-03T06:41:39.967Z,10.98
2018-12-03T06:42:49.462Z,10.98
2018-12-03T06:43:59.170Z,10.98
2018-12-03T06:45:09.133Z,11
2018-12-03T06:46:19.069Z,11.02
2018-12-03T06:47:28.775Z,10.94
2018-12-03T06:48:38.735Z,10.95
2018-12-03T06:49:48.683Z,10.98
2018-12-03T06:50:58.387Z,10.89
2018-12-03T06:52:08.090Z,10.94
2018-12-03T06:53:17.533Z,10.98
2018-12-03T06:54:27.220Z,11.01
2018-12-03T06:55:37.163Z,10.94
2018-12-03T06:56:46.853Z,11
2018-12-03T06:57:56.557Z,10.92
2018-12-03T06:59:06.492Z,10.9
2018-12-03T07:00:16.462Z,10.9
2018-12-03T07:01:26.155Z,10.9
2018-12-03T07:02:35.625Z,10.97
2018-12-03T07:03:45.848Z,11.01
2018-12-03T07:04:55.801Z,10.9
2018-12-03T07:06:05.767Z,10.95
2018-12-03T07:07:15.470Z,11.05
2018-12-03T07:08:25.422Z,10.98
2018-12-03T07:09:35.127Z,10.92
2018-12-03T07:10:45.112Z,11.02
2018-12-03T07:11:55.268Z,10.95
2018-12-03T07:13:05.206Z,10.95
2018-12-03T07:14:14.902Z,10.9
2018-12-03T07:15:24.843Z,10.97
2018-12-03T07:16:34.795Z,11
2018-12-03T07:17:44.473Z,11.02
2018-12-03T07:18:54.156Z,11.02
2018-12-03T07:20:03.850Z,11.05
2018-12-03T07:21:13.550Z,11.05
2018-12-03T07:22:23.269Z,11.15
2018-12-03T07:23:33.271Z,11.07
2018-12-03T07:24:43.284Z,11.05
2018-12-03T07:25:53.231Z,11.08
2018-12-03T07:27:03.193Z,11.02
2018-12-03T07:28:13.149Z,11.02
2018-12-03T07:29:22.853Z,11.04
2018-12-03T07:30:32.558Z,11.07
2018-12-03T07:31:42.269Z,11.01
2018-12-03T07:32:51.980Z,11.1
2018-12-03T07:34:05.871Z,11.12
2018-12-03T07:35:15.939Z,11.08
2018-12-03T07:36:25.392Z,11.13
2018-12-03T07:37:35.343Z,11.08
2018-12-03T07:38:45.328Z,11.18
2018-12-03T07:39:55.037Z,11.15
2018-12-03T07:41:05.013Z,11.13
2018-12-03T07:42:14.956Z,11.16
2018-12-03T07:43:24.915Z,11.13
2018-12-03T07:44:34.869Z,11.13
2018-12-03T07:45:44.622Z,11.19
2018-12-03T07:46:54.325Z,11.19
2018-12-03T07:48:04.271Z,11.23
2018-12-03T07:49:14.228Z,11.18
2018-12-03T07:50:23.917Z,11.16
2018-12-03T07:51:33.625Z,11.2
2018-12-03T07:52:43.575Z,11.2
2018-12-03T07:53:53.541Z,11.2
2018-12-03T07:55:03.491Z,11.25
2018-12-03T07:56:13.452Z,11.18
2018-12-03T07:57:23.388Z,11.19
2018-12-03T07:58:33.120Z,11.22
2018-12-03T07:59:43.089Z,11.18
2018-12-03T08:00:53.052Z,11.3
2018-12-03T08:02:02.779Z,11.23
2018-12-03T08:03:12.729Z,11.27
2018-12-03T08:04:22.443Z,11.26
2018-12-03T08:05:32.391Z,11.16
2018-12-03T08:06:42.350Z,11.26
2018-12-03T08:07:52.105Z,11.23
2018-12-03T08:09:02.052Z,11.26
2018-12-03T08:10:11.998Z,11.26
2018-12-03T08:11:21.956Z,11.27
2018-12-03T08:12:31.909Z,11.25
2018-12-03T08:13:41.864Z,11.3
2018-12-03T08:14:51.804Z,11.26
2018-12-03T08:16:01.760Z,11.27
2018-12-03T08:17:11.714Z,11.22
2018-12-03T08:18:21.678Z,11.27
2018-12-03T08:19:31.618Z,11.22
2018-12-03T08:20:41.566Z,11.25
2018-12-03T08:21:52.723Z,11.31
2018-12-03T08:23:02.675Z,11.26
2018-12-03T08:24:12.629Z,11.23
2018-12-03T08:25:22.615Z,11.22
2018-12-03T08:26:32.305Z,11.26
2018-12-03T08:27:42.253Z,11.31
2018-12-03T08:28:52.207Z,11.27
2018-12-03T08:30:01.922Z,11.33
2018-12-03T08:31:11.881Z,11.31
2018-12-03T08:32:21.578Z,11.25
2018-12-03T08:33:32.594Z,11.3
2018-12-03T08:34:42.613Z,11.31
2018-12-03T08:35:52.562Z,11.26
2018-12-03T08:37:02.530Z,11.35
2018-12-03T08:38:12.506Z,11.37
2018-12-03T08:39:22.484Z,11.37
2018-12-03T08:40:32.438Z,11.37
2018-12-03T08:41:42.392Z,11.4
2018-12-03T08:42:52.099Z,11.38
2018-12-03T08:44:02.052Z,11.44
2018-12-03T08:45:12.018Z,11.4
2018-12-03T08:46:21.917Z,11.48
2018-12-03T08:47:31.587Z,11.44
2018-12-03T08:48:41.309Z,11.49
2018-12-03T08:49:51.031Z,11.48
2018-12-03T08:51:00.719Z,11.45
2018-12-03T08:52:10.717Z,11.44
2018-12-03T08:53:20.673Z,11.44
2018-12-03T08:54:30.378Z,11.51
2018-12-03T08:55:40.076Z,11.44
2018-12-03T08:56:49.777Z,11.49
2018-12-03T08:57:59.702Z,11.45
2018-12-03T08:59:09.653Z,11.56
2018-12-03T09:00:21.034Z,11.53
2018-12-03T09:01:30.517Z,11.55
2018-12-03T09:02:40.488Z,11.55
2018-12-03T09:03:49.940Z,11.52
2018-12-03T09:04:59.878Z,11.52
2018-12-03T09:06:09.332Z,11.59
2018-12-03T09:07:19.081Z,11.63
2018-12-03T09:08:29.038Z,11.62
2018-12-03T09:09:38.983Z,11.6
2018-12-03T09:10:48.939Z,11.65
2018-12-03T09:11:58.900Z,11.74
2018-12-03T09:13:08.856Z,11.7
2018-12-03T09:14:18.566Z,11.77
2018-12-03T09:15:28.276Z,11.76
2018-12-03T09:16:37.977Z,11.85
2018-12-03T09:17:47.932Z,11.74
2018-12-03T09:18:57.646Z,11.77
2018-12-03T09:20:08.813Z,11.86
2018-12-03T09:21:18.612Z,11.91
2018-12-03T09:22:28.339Z,11.89
2018-12-03T09:23:38.298Z,11.93
2018-12-03T09:24:48.020Z,11.86
2018-12-03T09:25:57.966Z,11.86
2018-12-03T09:27:07.921Z,11.89
2018-12-03T09:28:17.853Z,11.86
2018-12-03T09:29:27.049Z,11.93
2018-12-03T09:30:37.030Z,11.88
2018-12-03T09:31:46.978Z,11.91
2018-12-03T09:32:56.957Z,11.89
2018-12-03T09:34:06.661Z,11.93
2018-12-03T09:35:16.628Z,11.91
2018-12-03T09:36:26.916Z,11.89
2018-12-03T09:37:36.700Z,11.95
2018-12-03T09:38:46.421Z,11.95
2018-12-03T09:39:56.384Z,11.86
2018-12-03T09:41:08.422Z,11.86
2018-12-03T09:42:18.378Z,11.81
2018-12-03T09:43:28.076Z,11.88
2018-12-03T09:44:37.779Z,11.81
2018-12-03T09:45:47.491Z,11.89
2018-12-03T09:46:57.448Z,11.77
2018-12-03T09:48:07.392Z,11.93
2018-12-03T09:49:17.340Z,11.91
2018-12-03T09:50:27.313Z,11.88
2018-12-03T09:51:37.016Z,11.81
2018-12-03T09:52:46.985Z,11.85
2018-12-03T09:53:56.944Z,11.91
2018-12-03T09:55:06.901Z,11.93
2018-12-03T09:56:16.604Z,11.86
2018-12-03T09:57:26.558Z,11.95
2018-12-03T09:58:36.268Z,11.91
2018-12-03T09:59:46.232Z,11.96
2018-12-03T10:00:56.200Z,11.96
2018-12-03T10:02:06.126Z,11.95
2018-12-03T10:03:15.828Z,11.99
2018-12-03T10:04:25.527Z,11.91
2018-12-03T10:05:36.555Z,11.88
2018-12-03T10:06:46.466Z,11.93
2018-12-03T10:07:56.425Z,11.95
2018-12-03T10:09:06.385Z,12.02
2018-12-03T10:10:16.333Z,12.02
2018-12-03T10:11:26.305Z,11.97
2018-12-03T10:12:36.257Z,11.97
2018-12-03T10:13:45.712Z,12.05
2018-12-03T10:14:55.652Z,12.02
2018-12-03T10:16:05.608Z,12.08
2018-12-03T10:17:15.312Z,11.97
2018-12-03T10:18:25.012Z,11.96
2018-12-03T10:19:34.723Z,12
2018-12-03T10:20:47.040Z,12.1
2018-12-03T10:21:56.973Z,12.08
2018-12-03T10:23:08.034Z,12
2018-12-03T10:24:18.072Z,12.05
2018-12-03T10:25:28.019Z,12.05
2018-12-03T10:26:37.970Z,12.05
2018-12-03T10:27:47.951Z,12.03
2018-12-03T10:28:57.903Z,12.1
2018-12-03T10:30:07.856Z,12.11
2018-12-03T10:31:17.817Z,12.11
2018-12-03T10:32:27.538Z,12.07
2018-12-03T10:33:37.244Z,12.05
2018-12-03T10:34:46.952Z,12.08
2018-12-03T10:35:56.906Z,12.15
2018-12-03T10:37:06.628Z,12.08
2018-12-03T10:38:16.636Z,12.14
2018-12-03T10:39:26.329Z,12.17
2018-12-03T10:40:36.076Z,12.29
2018-12-03T10:41:46.124Z,12.2
2018-12-03T10:42:55.826Z,12.23
2018-12-03T10:44:05.272Z,12.21
2018-12-03T10:45:15.227Z,12.3
2018-12-03T10:46:25.175Z,12.35
2018-12-03T10:47:35.120Z,12.47
2018-12-03T10:48:44.838Z,12.68
2018-12-03T10:49:54.808Z,12.78
2018-12-03T10:51:04.791Z,12.72
2018-12-03T10:52:14.509Z,12.87
2018-12-03T10:53:24.240Z,12.86
2018-12-03T10:54:34.239Z,12.9
2018-12-03T10:55:43.798Z,12.84
2018-12-03T10:56:53.764Z,12.76
2018-12-03T10:58:03.477Z,12.75
2018-12-03T10:59:13.451Z,12.73
2018-12-03T11:00:23.410Z,12.76
2018-12-03T11:01:33.273Z,12.75
2018-12-03T11:02:43.252Z,12.75
2018-12-03T11:03:53.196Z,12.75
2018-12-03T11:05:03.031Z,12.75
2018-12-03T11:06:12.765Z,12.73
2018-12-03T11:07:22.755Z,12.87
2018-12-03T11:08:34.020Z,12.87
2018-12-03T11:09:43.972Z,12.98
2018-12-03T11:10:53.732Z,12.87
2018-12-03T11:12:03.710Z,12.94
2018-12-03T11:13:13.161Z,12.93
2018-12-03T11:14:22.888Z,12.98
2018-12-03T11:15:32.589Z,13.16
2018-12-03T11:16:42.340Z,13.26
2018-12-03T11:17:52.306Z,13.2
2018-12-03T11:19:02.285Z,13.36
2018-12-03T11:20:12.266Z,13.45
2018-12-03T11:21:21.994Z,13.65
2018-12-03T11:22:31.978Z,13.64
2018-12-03T11:23:41.684Z,13.78
2018-12-03T11:24:51.426Z,13.83
2018-12-03T11:26:01.409Z,13.98
2018-12-03T11:27:11.115Z,14.11
2018-12-03T11:28:21.080Z,14.16
2018-12-03T11:29:30.886Z,14.16
2018-12-03T11:30:41.135Z,14.23
2018-12-03T11:31:50.894Z,14.13
2018-12-03T11:33:00.859Z,14.19
2018-12-03T11:34:10.839Z,14.16
2018-12-03T11:35:20.356Z,14.11
2018-12-03T11:36:30.060Z,14.23
2018-12-03T11:37:40.030Z,14.22
2018-12-03T11:38:49.780Z,14.34
2018-12-03T11:39:59.735Z,14.3
2018-12-03T11:41:09.699Z,14.36
2018-12-03T11:42:19.663Z,14.48
2018-12-03T11:43:29.647Z,14.58
2018-12-03T11:44:39.669Z,14.62
2018-12-03T11:45:49.375Z,14.62
2018-12-03T11:46:59.080Z,14.71
2018-12-03T11:48:08.835Z,14.59
2018-12-03T11:49:18.856Z,14.59
2018-12-03T11:50:28.825Z,14.45
2018-12-03T11:51:38.839Z,14.44
2018-12-03T11:52:48.557Z,14.45
2018-12-03T11:53:58.026Z,14.52
2018-12-03T11:55:07.733Z,14.62
2018-12-03T11:56:17.711Z,14.61
2018-12-03T11:57:27.671Z,14.94
2018-12-03T11:58:37.141Z,14.9
2018-12-03T11:59:46.853Z,14.85
2018-12-03T12:00:56.542Z,14.99
2018-12-03T12:02:05.978Z,15.1
2018-12-03T12:03:15.962Z,15.26
2018-12-03T12:04:25.647Z,15.41
2018-12-03T12:05:35.608Z,15.47
2018-12-03T12:06:45.593Z,15.32
2018-12-03T12:07:55.306Z,15.41
2018-12-03T12:09:05.267Z,15.47
2018-12-03T12:10:15.231Z,15.54
2018-12-03T12:11:24.924Z,15.54
2018-12-03T12:12:34.635Z,15.6
2018-12-03T12:13:44.653Z,15.65
2018-12-03T12:14:54.123Z,15.76
2018-12-03T12:16:03.836Z,15.87
2018-12-03T12:17:13.039Z,15.9
2018-12-03T12:18:23.027Z,15.88
2018-12-03T12:19:32.970Z,16.06
2018-12-03T12:20:42.894Z,16.13
2018-12-03T12:21:52.318Z,16.12
2018-12-03T12:23:02.257Z,16.18
2018-12-03T12:24:12.231Z,16.31
2018-12-03T12:25:22.200Z,16.06
2018-12-03T12:26:31.914Z,15.75
2018-12-03T12:27:41.883Z,15.5
2018-12-03T12:28:51.587Z,15.29
2018-12-03T12:30:01.035Z,15.12
2018-12-03T12:31:11.002Z,15.05
2018-12-03T12:32:20.961Z,14.79
2018-12-03T12:33:30.945Z,14.74
2018-12-03T12:34:40.911Z,14.67
2018-12-03T12:35:50.869Z,14.74
2018-12-03T12:37:00.323Z,14.78
2018-12-03T12:38:09.786Z,14.92
2018-12-03T12:39:19.747Z,15.69
2018-12-03T12:40:29.715Z,15.08
2018-12-03T12:41:39.683Z,15.18
2018-12-03T12:42:49.145Z,15.36
2018-12-03T12:43:58.864Z,15.36
2018-12-03T12:45:08.824Z,15.3
2018-12-03T12:46:18.563Z,15.27
2018-12-03T12:47:29.177Z,15.27
2018-12-03T12:48:38.777Z,15.17
2018-12-03T12:49:48.791Z,15.12
2018-12-03T12:50:58.532Z,15.15
2018-12-03T12:52:08.296Z,15.19
2018-12-03T12:53:18.281Z,15.12
2018-12-03T12:54:28.011Z,15.29
2018-12-03T12:55:37.719Z,15.27
2018-12-03T12:56:47.444Z,15.22
2018-12-03T12:57:57.402Z,15.17
2018-12-03T12:59:07.377Z,15.04
2018-12-03T13:00:17.104Z,14.87
2018-12-03T13:01:26.821Z,14.85
2018-12-03T13:02:36.552Z,14.82
2018-12-03T13:03:46.538Z,14.66
2018-12-03T13:04:55.754Z,14.53
2018-12-03T13:06:05.463Z,14.48
2018-12-03T13:07:15.451Z,14.31
2018-12-03T13:08:25.459Z,14.33
2018-12-03T13:09:35.427Z,14.26
2018-12-03T13:10:45.401Z,14.26
2018-12-03T13:11:55.367Z,14.16
2018-12-03T13:13:05.313Z,14.11
2018-12-03T13:14:15.019Z,14.15
2018-12-03T13:15:24.968Z,14.11
2018-12-03T13:16:34.920Z,14.07
2018-12-03T13:17:44.899Z,14.07
2018-12-03T13:18:54.608Z,14.03
2018-12-03T13:20:04.318Z,14
2018-12-03T13:21:14.290Z,13.97
2018-12-03T13:22:24.259Z,14.01
2018-12-03T13:23:38.084Z,14.01
2018-12-03T13:24:47.553Z,13.93
2018-12-03T13:25:57.519Z,13.87
2018-12-03T13:27:07.229Z,13.85
2018-12-03T13:28:16.967Z,13.93
2018-12-03T13:29:26.927Z,13.89
2018-12-03T13:30:36.984Z,13.76
2018-12-03T13:31:46.934Z,13.78
2018-12-03T13:32:56.421Z,13.82
2018-12-03T13:34:06.445Z,13.73
2018-12-03T13:35:16.407Z,13.78
2018-12-03T13:36:26.113Z,13.78
2018-12-03T13:37:36.079Z,13.73
2018-12-03T13:38:46.310Z,13.76
2018-12-03T13:39:56.301Z,13.7
2018-12-03T13:41:06.265Z,13.62
2018-12-03T13:42:16.243Z,13.61
2018-12-03T13:43:25.943Z,13.68
2018-12-03T13:44:35.661Z,13.73
2018-12-03T13:45:45.650Z,13.62
2018-12-03T13:46:55.614Z,13.67
2018-12-03T13:48:05.341Z,13.64
2018-12-03T13:49:15.064Z,13.62
2018-12-03T13:50:25.039Z,13.6
2018-12-03T13:51:35.946Z,13.62
2018-12-03T13:52:45.768Z,13.62
2018-12-03T13:53:55.494Z,13.58
2018-12-03T13:55:05.217Z,13.6
2018-12-03T13:56:14.937Z,13.65
2018-12-03T13:57:24.658Z,13.6
2018-12-03T13:58:34.359Z,13.54
2018-12-03T13:59:44.067Z,13.6
2018-12-03T14:00:53.799Z,13.55
2018-12-03T14:02:03.776Z,13.52
2018-12-03T14:03:13.806Z,13.42
2018-12-03T14:04:23.789Z,13.45
2018-12-03T14:05:33.746Z,13.46
2018-12-03T14:06:43.698Z,13.37
2018-12-03T14:07:53.408Z,13.37
2018-12-03T14:09:03.383Z,13.42
2018-12-03T14:10:12.838Z,13.3
2018-12-03T14:11:22.787Z,13.2
2018-12-03T14:12:32.242Z,13.2
2018-12-03T14:13:42.210Z,13.21
2018-12-03T14:14:51.932Z,13.26
2018-12-03T14:16:01.644Z,13.2
2018-12-03T14:17:11.616Z,13.19
2018-12-03T14:18:21.600Z,13.09
2018-12-03T14:19:31.571Z,13.05
2018-12-03T14:20:41.562Z,13.03
2018-12-03T14:21:51.516Z,13.05
2018-12-03T14:23:01.465Z,12.99
2018-12-03T14:24:11.436Z,12.98
2018-12-03T14:25:21.406Z,12.94
2018-12-03T14:26:31.371Z,12.93
2018-12-03T14:27:41.067Z,12.95
2018-12-03T14:28:51.036Z,12.93
2018-12-03T14:30:00.748Z,12.93
2018-12-03T14:31:10.712Z,12.93
2018-12-03T14:32:20.414Z,12.94
2018-12-03T14:33:30.149Z,12.98
2018-12-03T14:34:39.873Z,12.93
2018-12-03T14:35:49.835Z,12.91
2018-12-03T14:36:59.807Z,12.88
2018-12-03T14:38:09.763Z,12.9
2018-12-03T14:39:19.239Z,12.88
2018-12-03T14:40:29.207Z,12.9
2018-12-03T14:41:39.159Z,13.01
2018-12-03T14:42:48.882Z,12.91
2018-12-03T14:43:58.839Z,12.88
2018-12-03T14:45:08.778Z,12.87
2018-12-03T14:46:18.751Z,12.87
2018-12-03T14:47:28.718Z,12.87
2018-12-03T14:48:38.165Z,12.91
2018-12-03T14:49:48.101Z,13.01
2018-12-03T14:50:58.053Z,12.86
2018-12-03T14:52:08.039Z,12.88
2018-12-03T14:53:18.315Z,12.84
2018-12-03T14:54:28.268Z,12.84
2018-12-03T14:55:38.256Z,12.84
2018-12-03T14:56:48.218Z,12.78
2018-12-03T14:57:58.201Z,12.73
2018-12-03T14:59:07.914Z,12.76
2018-12-03T15:00:17.630Z,12.76
2018-12-03T15:01:27.581Z,12.78
2018-12-03T15:02:37.299Z,12.78
2018-12-03T15:03:47.252Z,12.75